Terminal Aerodrome Forecast
Issued by NWS

Home | Current Version | Previous Version | Text Only | Print | Product List | Glossary On
Versions: 1 2 3 4 5 6 7 8 9 10 11 12 13 14 15
000
FTUS44 KLIX 252328
TAFHDC
TAF
KHDC 252328Z 2600/2624 14013G17KT P6SM SCT050
     FM260500 14004KT P6SM BKN040
     FM260800 00000KT P6SM BKN025
      TEMPO 2610/2614 BKN008
     FM261500 14005KT P6SM BKN060
     FM261800 14010G20KT P6SM BKN110=

USA.gov is the U.S. government's official web portal to all federal, state and local government web resources and services.